Accueil
METAR-TAF:

METAR-TAF

Aéroports :

Tri-Cities Airport

Pasco, Washington, États-Unis

latitude: 46-16-11N, longitude: 119-07-00W, altitude: 124 m

Observation

Le bulletin a été fait il y a 17 minutes, à 22:53 UTC
Vent 7 kt de ouest
Température 26°C
Humidité 28%
Pression 1014 hPa
Visibilité: 16.1 km
Ciel clair

METAR: KPSC 262253Z 26007KT 10SM CLR 26/06 A2995 RMK AO2 SLP137 T02560056

Heure: 16:10 (23:10 UTC)

Prévision

Le bulletin a été fait il y a 5 heures et 50 minutes, à 17:20 UTC
Prévision valable du 26 à 18 UTC au 27 à 18 UTC
Vent 12 kt de sud-ouest avec des rafales jusqu'à 18 kt
Visibilité: 10 km
Nuages épars à une hauteur de 8000 ft
A partir de 26 à 2100 UTC
Vent 10 kt de sud/sud-ouest
Visibilité: 10 km
Ciel clair

TAF: KPSC 261720Z 2618/2718 22012G18KT P6SM SCT080 FM262100 21010KT P6SM SKC

Observations et prévisions météorologiques de plus de 4000 aéroports (messages METAR et TAF).

Les stations disponibles sont représentées par des disques jaunes et rouges sur la carte.

Passer la souris dessus pour voir le nom de la station.

Cliquer dessus pour voir les observations et prévisions météorologiques.

Pour changer de carte: cliquez sur les boutons verts avec une croix noire pour zoomer, sur le bouton vert avec un tiret pour effectuer un zoom arrière, ou sur les flèches vertes pour les cartes adjacentes.


METAR-TAF: